createdAt,value
2019-01-02T00:00:46.772Z,15.30
2019-01-02T00:03:17.293Z,14.77
2019-01-02T00:05:46.658Z,10.43
2019-01-02T00:08:15.725Z,17.27
2019-01-02T00:10:48.249Z,16.60
2019-01-02T00:13:19.804Z,14.77
2019-01-02T00:15:48.733Z,10.80
2019-01-02T00:18:26.959Z,13.17
2019-01-02T00:23:47.498Z,15.13
2019-01-02T00:26:16.711Z,12.23
2019-01-02T00:28:45.661Z,19.50
2019-01-02T00:31:28.873Z,11.20
2019-01-02T00:33:58.028Z,12.10
2019-01-02T00:36:26.833Z,13.93
2019-01-02T00:38:55.747Z,13.00
2019-01-02T00:41:25.241Z,11.10
2019-01-02T00:43:54.102Z,15.73
2019-01-02T00:46:27.247Z,12.97
2019-01-02T00:48:58.372Z,14.60
2019-01-02T00:51:27.886Z,14.27
2019-01-02T00:53:56.984Z,9.40
2019-01-02T00:56:30.054Z,12.53
2019-01-02T00:59:10.530Z,15.13
2019-01-02T01:01:41.519Z,11.77
2019-01-02T01:04:11.137Z,11.00
2019-01-02T01:06:44.358Z,17.13
2019-01-02T01:09:15.974Z,12.57
2019-01-02T01:11:45.055Z,15.73
2019-01-02T01:14:14.144Z,11.27
2019-01-02T01:16:43.077Z,14.67
2019-01-02T01:19:12.396Z,13.87
2019-01-02T01:21:41.148Z,11.27
2019-01-02T01:24:12.933Z,11.27
2019-01-02T01:26:41.836Z,15.20
2019-01-02T01:29:10.993Z,10.20
2019-01-02T01:31:40.176Z,12.03
2019-01-02T01:34:08.861Z,13.73
2019-01-02T01:36:37.682Z,9.97
2019-01-02T01:39:35.181Z,15.40
2019-01-02T01:42:03.934Z,10.60
2019-01-02T01:44:34.681Z,8.70
2019-01-02T01:47:03.717Z,9.73
2019-01-02T01:49:32.457Z,12.53
2019-01-02T01:52:03.560Z,10.40
2019-01-02T01:54:32.508Z,10.77
2019-01-02T01:57:01.362Z,11.43
2019-01-02T01:59:32.632Z,11.13
2019-01-02T02:02:01.449Z,13.50
2019-01-02T02:04:30.246Z,14.50
2019-01-02T02:06:59.409Z,16.33
2019-01-02T02:09:28.015Z,12.10
2019-01-02T02:11:57.002Z,12.23
2019-01-02T02:14:26.438Z,12.97
2019-01-02T02:16:55.460Z,10.00
2019-01-02T02:19:24.428Z,21.27
2019-01-02T02:21:53.210Z,17.70
2019-01-02T02:24:21.921Z,18.53
2019-01-02T02:26:50.740Z,17.53
2019-01-02T02:29:19.861Z,18.20
2019-01-02T02:31:49.190Z,13.60
2019-01-02T02:34:18.067Z,15.23
2019-01-02T02:36:46.926Z,17.97
2019-01-02T02:39:15.924Z,15.40
2019-01-02T02:41:44.912Z,12.13
2019-01-02T02:44:13.991Z,15.33
2019-01-02T02:46:43.063Z,12.87
2019-01-02T02:49:11.725Z,21.20
2019-01-02T02:51:40.721Z,19.20
2019-01-02T02:54:09.629Z,13.00
2019-01-02T02:56:38.838Z,19.47
2019-01-02T02:59:08.011Z,15.57
2019-01-02T03:01:36.962Z,24.50
2019-01-02T03:04:09.552Z,21.67
2019-01-02T03:06:39.168Z,24.50
2019-01-02T03:09:08.688Z,22.63
2019-01-02T03:11:37.841Z,16.80
2019-01-02T03:14:07.794Z,18.57
2019-01-02T03:16:36.706Z,18.70
2019-01-02T03:19:05.603Z,18.17
2019-01-02T03:21:34.505Z,18.27
2019-01-02T03:24:03.569Z,19.60
2019-01-02T03:26:32.278Z,20.53
2019-01-02T03:29:00.955Z,24.83
2019-01-02T03:31:30.137Z,27.07
2019-01-02T03:33:59.281Z,26.27
2019-01-02T03:36:28.006Z,22.17
2019-01-02T03:38:57.105Z,23.33
2019-01-02T03:41:25.835Z,15.83
2019-01-02T03:43:54.506Z,20.00
2019-01-02T03:46:24.159Z,22.03
2019-01-02T03:48:52.892Z,20.67
2019-01-02T03:51:21.848Z,23.57
2019-01-02T03:53:50.522Z,22.30
2019-01-02T03:56:19.228Z,22.20
2019-01-02T03:58:47.973Z,18.13
2019-01-02T04:01:16.607Z,26.30
2019-01-02T04:03:45.254Z,24.50
2019-01-02T04:06:13.763Z,25.10
2019-01-02T04:08:42.864Z,23.40
2019-01-02T04:11:11.530Z,16.40
2019-01-02T04:13:43.264Z,20.97
2019-01-02T04:16:12.073Z,18.67
2019-01-02T04:18:42.653Z,24.40
2019-01-02T04:21:11.279Z,24.47
2019-01-02T04:23:42.214Z,17.77
2019-01-02T04:26:12.133Z,17.73
2019-01-02T04:28:42.860Z,20.63
2019-01-02T04:31:11.570Z,15.63
2019-01-02T04:33:40.465Z,19.30
2019-01-02T04:36:15.007Z,19.17
2019-01-02T04:38:43.603Z,26.53
2019-01-02T07:52:15.636Z,18.13
2019-01-02T07:55:03.332Z,20.80
2019-01-02T07:57:49.470Z,19.57
2019-01-02T08:00:41.533Z,22.53
2019-01-02T08:03:30.186Z,16.50
2019-01-02T08:06:09.747Z,21.00
2019-01-02T08:08:57.022Z,18.17
2019-01-02T08:11:50.701Z,22.93
2019-01-02T08:15:12.472Z,23.27
2019-01-02T08:18:07.554Z,19.53
2019-01-02T08:21:11.127Z,16.60
2019-01-02T08:24:04.813Z,13.47
2019-01-02T08:33:31.160Z,17.63
2019-01-02T08:36:39.266Z,15.90
2019-01-02T08:39:30.406Z,15.67
2019-01-02T08:49:02.654Z,21.33
2019-01-02T13:01:10.285Z,9.83
2019-01-02T13:07:17.640Z,5.22
2019-01-02T13:14:08.941Z,5.30
2019-01-02T13:17:55.085Z,4.83
2019-01-02T13:22:34.311Z,5.20
2019-01-02T13:24:10.868Z,4.27
2019-01-02T13:31:00.547Z,4.00
2019-01-02T13:37:21.395Z,5.83
2019-01-02T13:43:55.869Z,4.53
2019-01-02T13:46:51.190Z,4.80
2019-01-02T13:49:51.373Z,3.20
2019-01-02T13:52:21.097Z,2.70
2019-01-02T13:54:50.113Z,7.93
2019-01-02T13:57:19.344Z,3.10
2019-01-02T13:59:50.551Z,8.43
2019-01-02T14:02:19.155Z,8.63
2019-01-02T14:04:48.410Z,5.33
2019-01-02T14:07:19.430Z,3.83
2019-01-02T14:09:48.230Z,14.47
2019-01-02T14:12:17.157Z,11.17
2019-01-02T14:14:48.895Z,37.73
2019-01-02T14:17:17.721Z,15.65
2019-01-02T14:19:46.701Z,8.30
2019-01-02T14:22:16.613Z,5.37
2019-01-02T14:24:47.366Z,5.93
2019-01-02T14:27:18.457Z,9.13
2019-01-02T14:29:47.351Z,3.00
2019-01-02T14:32:18.746Z,1.93
2019-01-02T14:34:47.822Z,3.00
2019-01-02T14:37:16.647Z,6.47
2019-01-02T14:39:45.449Z,5.43
2019-01-02T14:42:15.932Z,6.60
2019-01-02T14:44:45.088Z,4.67
2019-01-02T14:47:13.882Z,2.07
2019-01-02T14:49:43.079Z,3.13
2019-01-02T14:52:11.854Z,4.73
2019-01-02T14:54:43.042Z,3.40
2019-01-02T14:57:25.125Z,5.27
2019-01-02T14:59:53.932Z,4.20
2019-01-02T15:02:22.875Z,3.00
2019-01-02T15:04:54.731Z,2.53
2019-01-02T15:07:25.445Z,2.97
2019-01-02T15:09:54.826Z,4.03
2019-01-02T15:12:24.059Z,2.07
2019-01-02T15:14:57.075Z,3.83
2019-01-02T15:17:25.989Z,3.73
2019-01-02T15:19:54.908Z,3.57
2019-01-02T15:22:23.804Z,4.47
2019-01-02T15:24:52.736Z,4.93
2019-01-02T15:27:21.529Z,1.63
2019-01-02T15:29:51.374Z,2.53
2019-01-02T15:32:20.233Z,4.20
2019-01-02T15:34:50.790Z,4.27
2019-01-02T15:37:20.747Z,2.43
2019-01-02T15:39:49.634Z,4.70
2019-01-02T15:42:21.982Z,3.43
2019-01-02T15:44:50.954Z,5.17
2019-01-02T15:47:20.358Z,3.17
2019-01-02T15:49:54.451Z,4.17
2019-01-02T15:52:28.068Z,4.93
2019-01-02T15:54:57.068Z,6.07
2019-01-02T15:57:26.134Z,5.13
2019-01-02T16:00:01.792Z,2.20
2019-01-02T16:02:47.529Z,4.50
2019-01-02T16:05:24.090Z,5.97
2019-01-02T16:08:09.773Z,2.87
2019-01-02T16:10:54.730Z,3.70
2019-01-02T16:13:34.745Z,3.73
2019-01-02T16:16:06.922Z,5.70
2019-01-02T16:18:49.151Z,6.10
2019-01-02T16:22:13.930Z,3.47
2019-01-02T16:25:06.513Z,4.87
2019-01-02T16:27:26.201Z,1.27
2019-01-02T16:30:00.309Z,3.87
2019-01-02T16:32:36.383Z,9.73
2019-01-02T16:35:06.031Z,2.17
2019-01-02T16:37:35.162Z,1.70
2019-01-02T16:40:08.457Z,5.33
2019-01-02T16:42:37.948Z,3.67
2019-01-02T16:45:11.238Z,3.87
2019-01-02T16:50:58.624Z,2.97
2019-01-02T16:53:35.649Z,2.20
2019-01-02T16:56:13.997Z,2.63
2019-01-02T16:58:46.157Z,1.73
2019-01-02T17:01:21.030Z,2.40
2019-01-02T17:03:52.503Z,4.20
2019-01-02T17:06:29.624Z,3.07
2019-01-02T17:09:47.559Z,2.53
2019-01-02T17:11:48.501Z,3.57
2019-01-02T17:14:23.151Z,5.23
2019-01-02T17:17:10.748Z,2.97
2019-01-02T17:19:48.751Z,2.70
2019-01-02T17:22:42.900Z,3.10
2019-01-02T17:28:23.138Z,5.30
2019-01-02T17:30:53.281Z,5.00
2019-01-02T17:33:22.504Z,4.00
2019-01-02T17:35:54.349Z,2.47
2019-01-02T17:38:23.450Z,2.67
2019-01-02T17:40:52.723Z,4.47
2019-01-02T17:43:23.258Z,4.20
2019-01-02T17:45:52.157Z,5.23
2019-01-02T17:48:22.221Z,2.83
2019-01-02T17:50:51.422Z,2.20
2019-01-02T17:53:31.091Z,3.67
2019-01-02T17:56:03.206Z,5.07
2019-01-02T17:58:32.012Z,3.13
2019-01-02T18:01:01.218Z,2.90
2019-01-02T18:03:30.375Z,4.30
2019-01-02T18:06:01.592Z,4.30
2019-01-02T18:08:30.613Z,4.80
2019-01-02T18:10:59.725Z,3.90
2019-01-02T18:13:28.846Z,3.70
2019-01-02T18:15:57.974Z,3.40
2019-01-02T18:18:26.951Z,2.90
2019-01-02T18:20:56.593Z,5.47
2019-01-02T18:23:29.483Z,5.80
2019-01-02T18:26:00.308Z,4.97
2019-01-02T18:28:35.832Z,4.83
2019-01-02T18:31:31.254Z,5.70
2019-01-02T18:33:50.645Z,6.03
2019-01-02T18:36:34.902Z,6.43
2019-01-02T18:39:04.745Z,3.47
2019-01-02T18:41:38.759Z,3.53
2019-01-02T18:44:08.081Z,3.23
2019-01-02T18:46:37.102Z,2.90
2019-01-02T18:49:06.301Z,2.17
2019-01-02T18:51:35.013Z,3.43
2019-01-02T18:54:03.870Z,2.80
2019-01-02T18:56:32.679Z,5.07
2019-01-02T18:59:01.519Z,2.53
2019-01-02T19:01:30.347Z,1.80
2019-01-02T19:03:59.319Z,4.60
2019-01-02T19:06:27.983Z,4.63
2019-01-02T19:08:56.834Z,2.67
2019-01-02T19:11:25.726Z,1.83
2019-01-02T19:13:54.700Z,4.07
2019-01-02T19:16:23.472Z,6.30
2019-01-02T19:18:52.341Z,4.17
2019-01-02T19:21:21.348Z,5.20
2019-01-02T19:23:50.672Z,3.13
2019-01-02T19:26:20.075Z,2.20
2019-01-02T19:28:57.878Z,2.80
2019-01-02T19:31:26.145Z,2.77
2019-01-02T19:33:55.720Z,3.40
2019-01-02T19:36:27.199Z,7.50
2019-01-02T19:39:04.491Z,5.50
2019-01-02T19:41:34.009Z,6.67
2019-01-02T19:44:06.700Z,5.37
2019-01-02T19:46:39.980Z,2.33
2019-01-02T19:49:12.256Z,2.90
2019-01-02T19:51:50.371Z,2.73
2019-01-02T19:54:31.907Z,3.83
2019-01-02T19:56:58.815Z,3.13
2019-01-02T19:59:28.072Z,2.20
2019-01-02T20:02:00.071Z,3.23
2019-01-02T20:04:29.382Z,4.23
2019-01-02T20:06:58.934Z,3.70
2019-01-02T20:09:30.440Z,6.53
2019-01-02T20:12:02.260Z,3.00
2019-01-02T20:14:51.632Z,5.23
2019-01-02T20:17:22.748Z,1.80
2019-01-02T20:19:54.568Z,3.43
2019-01-02T20:22:23.469Z,3.47
2019-01-02T20:24:55.501Z,3.97
2019-01-02T20:27:24.325Z,2.17
2019-01-02T20:29:53.693Z,3.33
2019-01-02T20:32:22.543Z,4.17
2019-01-02T20:34:51.452Z,7.20
2019-01-02T20:37:20.543Z,6.77
2019-01-02T20:39:49.537Z,3.60
2019-01-02T20:42:21.706Z,5.27
2019-01-02T20:44:50.690Z,7.30
2019-01-02T20:47:19.490Z,2.77
2019-01-02T20:49:48.387Z,5.80
2019-01-02T20:52:17.120Z,6.27
2019-01-02T20:54:46.098Z,4.80
2019-01-02T20:57:15.126Z,5.17
2019-01-02T20:59:43.977Z,4.83
2019-01-02T21:02:12.694Z,2.87
2019-01-02T21:04:41.501Z,2.63
2019-01-02T21:07:10.448Z,3.20
2019-01-02T21:09:39.092Z,3.43
2019-01-02T21:12:07.626Z,5.23
2019-01-02T21:14:38.497Z,3.73
2019-01-02T21:17:07.241Z,5.33
2019-01-02T21:19:36.143Z,3.37
2019-01-02T21:22:05.747Z,3.27
2019-01-02T21:24:34.321Z,4.40
2019-01-02T21:27:02.962Z,2.97
2019-01-02T21:29:31.679Z,5.53
2019-01-02T21:32:00.601Z,3.73
2019-01-02T21:34:31.271Z,3.77
2019-01-02T21:36:59.842Z,4.63
2019-01-02T21:39:28.417Z,4.00
2019-01-02T21:41:57.188Z,6.80
2019-01-02T21:44:25.683Z,4.13
2019-01-02T21:46:54.374Z,5.63
2019-01-02T21:49:23.069Z,5.47
2019-01-02T21:51:51.686Z,14.00
2019-01-02T21:54:20.366Z,5.47
2019-01-02T21:56:48.890Z,9.43
2019-01-02T21:59:17.370Z,4.20
2019-01-02T22:01:46.912Z,8.93
2019-01-02T22:04:15.513Z,3.40
2019-01-02T22:06:44.209Z,4.40
2019-01-02T22:09:12.753Z,2.87
2019-01-02T22:11:41.353Z,7.33
2019-01-02T22:14:10.927Z,6.63
2019-01-02T22:16:39.665Z,6.90
2019-01-02T22:19:08.248Z,6.77
2019-01-02T22:21:36.844Z,4.87
2019-01-02T22:24:06.656Z,3.20
2019-01-02T22:26:35.267Z,2.57
2019-01-02T22:29:03.847Z,5.43
2019-01-02T22:31:32.340Z,1.83
2019-01-02T22:34:00.934Z,7.80
2019-01-02T22:36:29.430Z,5.33
2019-01-02T22:38:58.054Z,8.00
2019-01-02T22:41:27.654Z,2.97
2019-01-02T22:43:56.361Z,4.60
2019-01-02T22:46:24.915Z,3.40
2019-01-02T22:48:53.587Z,4.73
2019-01-02T22:51:23.145Z,5.80
2019-01-02T22:53:51.658Z,4.23
2019-01-02T22:56:20.273Z,3.37
2019-01-02T22:58:48.923Z,3.87
2019-01-02T23:01:29.002Z,4.90
2019-01-02T23:04:15.085Z,3.23
2019-01-02T23:07:01.496Z,3.23
2019-01-02T23:10:02.183Z,2.37
2019-01-02T23:12:58.068Z,2.63
2019-01-02T23:15:57.339Z,2.50
2019-01-02T23:18:43.577Z,4.90
2019-01-02T23:21:34.797Z,2.70
2019-01-02T23:24:21.168Z,3.20
2019-01-02T23:27:27.107Z,3.90
2019-01-02T23:30:15.798Z,3.67
2019-01-02T23:33:01.926Z,4.43
2019-01-02T23:35:48.286Z,4.57
2019-01-02T23:38:40.996Z,2.37
2019-01-02T23:41:46.657Z,4.00
2019-01-02T23:44:32.872Z,4.30
2019-01-02T23:47:32.801Z,2.10
2019-01-02T23:50:20.475Z,3.27
2019-01-02T23:53:06.826Z,4.93
2019-01-02T23:55:53.246Z,2.43
2019-01-02T23:58:55.879Z,3.50
